EZY8LG EGKK-LPMA
Flight info
| Callsign | EZY8LG |
|---|---|
| Flight time | N/A |
| Altitude | 37000 |
| Route | IMVUR N63 SAM M195 LORKU DCT POZOF DCT LOTEE DCT PINEK DCT VERAM DCT TELMU DCT PECKY DCT LIDRO |
| Aircraft | A320/M-SDE3FGHIRWY/LB1 |
Departure
| Time | 2026-05-06 09:11 |
|---|---|
| Airport | London Gatwick Airport (EGKK) |
Arrival
| Time | N/A |
|---|---|
| Airport | Cristiano Ronaldo International Airport (LPMA) |
| Time | Latitude | Longitude | Altitude | Speed | Heading |
|---|---|---|---|---|---|
| 2026-05-06 08:33 | 51.15564 | -0.17821 | 205 ft | 0 kts | 347° |
| 2026-05-06 08:56 | 51.15555 | -0.17818 | 216 ft | 3 kts | 345° |
| 2026-05-06 08:56 | 51.15536 | -0.17809 | 209 ft | 3 kts | 338° |
| 2026-05-06 08:56 | 51.15518 | -0.17795 | 207 ft | 3 kts | 321° |
| 2026-05-06 08:57 | 51.15506 | -0.17773 | 214 ft | 3 kts | 278° |
| 2026-05-06 08:57 | 51.15505 | -0.17761 | 214 ft | 0 kts | 257° |
| 2026-05-06 09:00 | 51.15498 | -0.17812 | 207 ft | 6 kts | 257° |
| 2026-05-06 09:00 | 51.15487 | -0.17886 | 214 ft | 13 kts | 258° |
| 2026-05-06 09:01 | 51.15468 | -0.18034 | 205 ft | 13 kts | 258° |
| 2026-05-06 09:01 | 51.15450 | -0.18164 | 212 ft | 11 kts | 258° |
| 2026-05-06 09:01 | 51.15414 | -0.18271 | 205 ft | 12 kts | 203° |
| 2026-05-06 09:01 | 51.15330 | -0.18253 | 205 ft | 13 kts | 168° |
| 2026-05-06 09:02 | 51.15234 | -0.18228 | 214 ft | 15 kts | 175° |
| 2026-05-06 09:02 | 51.15177 | -0.18342 | 206 ft | 15 kts | 262° |
| 2026-05-06 09:02 | 51.15155 | -0.18565 | 210 ft | 24 kts | 259° |
| 2026-05-06 09:02 | 51.15118 | -0.18831 | 208 ft | 25 kts | 257° |
| 2026-05-06 09:03 | 51.15080 | -0.19110 | 208 ft | 26 kts | 257° |
| 2026-05-06 09:03 | 51.15040 | -0.19396 | 211 ft | 27 kts | 257° |
| 2026-05-06 09:03 | 51.14999 | -0.19700 | 213 ft | 29 kts | 257° |
| 2026-05-06 09:03 | 51.14957 | -0.20010 | 217 ft | 28 kts | 258° |
| 2026-05-06 09:04 | 51.14913 | -0.20318 | 212 ft | 29 kts | 257° |
| 2026-05-06 09:04 | 51.14872 | -0.20610 | 211 ft | 27 kts | 257° |
| 2026-05-06 09:04 | 51.14833 | -0.20890 | 205 ft | 24 kts | 257° |
| 2026-05-06 09:04 | 51.14795 | -0.21144 | 215 ft | 20 kts | 252° |
| 2026-05-06 09:05 | 51.14761 | -0.21343 | 205 ft | 16 kts | 255° |
| 2026-05-06 09:05 | 51.14699 | -0.21400 | 207 ft | 10 kts | 167° |
| 2026-05-06 09:05 | 51.14650 | -0.21345 | 212 ft | 8 kts | 146° |
| 2026-05-06 09:05 | 51.14629 | -0.21332 | 207 ft | 0 kts | 162° |
| 2026-05-06 09:09 | 51.14588 | -0.21311 | 213 ft | 10 kts | 161° |
| 2026-05-06 09:09 | 51.14524 | -0.21237 | 213 ft | 11 kts | 123° |
| 2026-05-06 09:09 | 51.14527 | -0.21128 | 214 ft | 9 kts | 77° |
| 2026-05-06 09:10 | 51.14552 | -0.20968 | 208 ft | 37 kts | 77° |
| 2026-05-06 09:10 | 51.14660 | -0.20175 | 211 ft | 106 kts | 78° |
| 2026-05-06 09:10 | 51.14858 | -0.18733 | 215 ft | 158 kts | 77° |
| 2026-05-06 09:10 | 51.15077 | -0.16894 | 603 ft | 174 kts | 76° |
| 2026-05-06 09:11 | 51.15321 | -0.14980 | 1340 ft | 177 kts | 74° |
| 2026-05-06 09:11 | 51.15600 | -0.12969 | 1802 ft | 198 kts | 73° |
| 2026-05-06 09:11 | 51.15929 | -0.10711 | 2299 ft | 216 kts | 73° |
| 2026-05-06 09:11 | 51.16264 | -0.08375 | 2855 ft | 222 kts | 73° |
| 2026-05-06 09:12 | 51.16839 | -0.06147 | 2982 ft | 215 kts | 45° |
| 2026-05-06 09:12 | 51.18082 | -0.04997 | 3005 ft | 209 kts | 8° |
| 2026-05-06 09:12 | 51.19517 | -0.05250 | 3065 ft | 213 kts | 347° |
| 2026-05-06 09:12 | 51.20965 | -0.05800 | 3910 ft | 213 kts | 345° |
| 2026-05-06 09:13 | 51.22233 | -0.07005 | 4823 ft | 219 kts | 312° |
| 2026-05-06 09:13 | 51.22841 | -0.09320 | 5390 ft | 246 kts | 277° |
| 2026-05-06 09:13 | 51.22720 | -0.12169 | 6013 ft | 264 kts | 265° |
| 2026-05-06 09:13 | 51.22390 | -0.15085 | 6717 ft | 270 kts | 262° |
| 2026-05-06 09:14 | 51.21998 | -0.18018 | 6933 ft | 271 kts | 261° |
| 2026-05-06 09:14 | 51.21596 | -0.20960 | 6996 ft | 271 kts | 261° |
| 2026-05-06 09:14 | 51.21206 | -0.23895 | 7090 ft | 270 kts | 262° |
| 2026-05-06 09:14 | 51.20832 | -0.26836 | 7341 ft | 271 kts | 262° |
| 2026-05-06 09:15 | 51.20590 | -0.28797 | 7510 ft | 272 kts | 262° |
| 2026-05-06 09:15 | 51.20185 | -0.32154 | 7796 ft | 274 kts | 262° |
| 2026-05-06 09:15 | 51.19833 | -0.35150 | 7963 ft | 276 kts | 262° |
| 2026-05-06 09:15 | 51.19460 | -0.38156 | 7997 ft | 276 kts | 261° |
| 2026-05-06 09:16 | 51.19071 | -0.41149 | 7998 ft | 276 kts | 261° |
| 2026-05-06 09:16 | 51.18674 | -0.44142 | 7999 ft | 276 kts | 261° |
| 2026-05-06 09:16 | 51.18273 | -0.47140 | 8000 ft | 276 kts | 261° |
| 2026-05-06 09:16 | 51.17874 | -0.50134 | 8000 ft | 276 kts | 261° |
| 2026-05-06 09:17 | 51.17611 | -0.52117 | 7999 ft | 276 kts | 260° |
| 2026-05-06 09:17 | 51.16998 | -0.55022 | 7998 ft | 278 kts | 250° |
| 2026-05-06 09:17 | 51.16240 | -0.57869 | 8000 ft | 279 kts | 250° |
| 2026-05-06 09:17 | 51.15479 | -0.60730 | 8360 ft | 282 kts | 250° |
| 2026-05-06 09:18 | 51.14712 | -0.63616 | 9275 ft | 285 kts | 249° |
| 2026-05-06 09:18 | 51.13931 | -0.66551 | 10090 ft | 290 kts | 249° |
| 2026-05-06 09:18 | 51.13119 | -0.69605 | 10454 ft | 311 kts | 249° |
| 2026-05-06 09:18 | 51.12247 | -0.72883 | 10818 ft | 329 kts | 249° |
| 2026-05-06 09:19 | 51.11344 | -0.76269 | 11507 ft | 334 kts | 248° |
| 2026-05-06 09:19 | 51.10426 | -0.79686 | 12284 ft | 337 kts | 248° |
| 2026-05-06 09:19 | 51.09497 | -0.83134 | 13071 ft | 340 kts | 248° |
| 2026-05-06 09:19 | 51.08561 | -0.86602 | 13827 ft | 343 kts | 248° |
| 2026-05-06 09:20 | 51.07616 | -0.90102 | 14489 ft | 345 kts | 248° |
| 2026-05-06 09:20 | 51.06663 | -0.93625 | 14877 ft | 347 kts | 248° |
| 2026-05-06 09:20 | 51.05709 | -0.97151 | 14977 ft | 347 kts | 248° |
| 2026-05-06 09:20 | 51.04821 | -1.00431 | 14998 ft | 346 kts | 248° |
| 2026-05-06 09:21 | 51.04632 | -1.01138 | 15001 ft | 345 kts | 248° |
| 2026-05-06 09:21 | 51.04385 | -1.02073 | 15006 ft | 345 kts | 244° |